createdAt,value
2018-11-21T00:00:19.977Z,31.53
2018-11-21T00:02:48.723Z,38.93
2018-11-21T00:05:16.847Z,31.97
2018-11-21T00:07:44.960Z,30.07
2018-11-21T00:10:13.397Z,29.20
2018-11-21T00:12:44.037Z,30.17
2018-11-21T00:15:12.102Z,32.73
2018-11-21T00:17:40.135Z,29.73
2018-11-21T00:20:09.790Z,28.97
2018-11-21T00:22:37.972Z,29.57
2018-11-21T00:25:06.065Z,30.67
2018-11-21T00:27:34.148Z,30.23
2018-11-21T00:30:02.196Z,30.97
2018-11-21T00:32:30.225Z,31.27
2018-11-21T00:34:58.302Z,31.07
2018-11-21T00:37:26.406Z,29.77
2018-11-21T00:39:54.697Z,31.73
2018-11-21T00:42:22.753Z,29.43
2018-11-21T00:44:50.818Z,30.30
2018-11-21T00:47:18.849Z,28.37
2018-11-21T00:49:46.963Z,26.47
2018-11-21T00:52:14.983Z,28.83
2018-11-21T00:54:43.124Z,31.63
2018-11-21T00:57:11.190Z,29.00
2018-11-21T00:59:40.230Z,28.60
2018-11-21T01:02:07.760Z,30.57
2018-11-21T01:04:35.800Z,28.13
2018-11-21T01:07:03.875Z,27.47
2018-11-21T01:09:31.942Z,30.50
2018-11-21T01:12:00.019Z,26.57
2018-11-21T01:14:28.047Z,27.70
2018-11-21T01:16:56.127Z,28.03
2018-11-21T01:19:24.334Z,28.57
2018-11-21T01:21:52.342Z,30.73
2018-11-21T01:24:20.413Z,27.10
2018-11-21T01:26:48.621Z,29.97
2018-11-21T01:29:16.649Z,31.07
2018-11-21T01:31:44.727Z,28.60
2018-11-21T01:34:12.854Z,28.23
2018-11-21T01:36:40.955Z,33.27
2018-11-21T01:39:10.453Z,30.80
2018-11-21T01:41:38.644Z,27.07
2018-11-21T01:44:07.123Z,28.60
2018-11-21T01:46:35.833Z,29.70
2018-11-21T01:49:03.897Z,29.33
2018-11-21T01:51:32.447Z,30.90
2018-11-21T01:54:00.604Z,28.53
2018-11-21T01:56:28.700Z,27.80
2018-11-21T01:58:56.846Z,26.73
2018-11-21T02:01:24.906Z,27.10
2018-11-21T02:03:53.017Z,29.53
2018-11-21T02:06:21.025Z,26.57
2018-11-21T02:08:49.139Z,26.83
2018-11-21T02:11:17.191Z,29.00
2018-11-21T02:13:45.298Z,27.33
2018-11-21T02:16:13.373Z,26.87
2018-11-21T02:18:41.408Z,25.87
2018-11-21T02:21:09.481Z,28.70
2018-11-21T02:23:37.528Z,27.20
2018-11-21T02:26:05.928Z,28.40
2018-11-21T02:28:33.975Z,36.07
2018-11-21T02:31:02.076Z,26.87
2018-11-21T02:33:30.102Z,26.00
2018-11-21T02:35:58.182Z,26.37
2018-11-21T02:38:26.200Z,27.33
2018-11-21T02:40:54.237Z,28.30
2018-11-21T02:43:22.306Z,29.20
2018-11-21T02:45:50.344Z,29.90
2018-11-21T02:48:18.570Z,30.03
2018-11-21T02:50:46.608Z,30.23
2018-11-21T02:53:14.714Z,30.80
2018-11-21T02:55:42.739Z,28.30
2018-11-21T02:58:10.816Z,28.10
2018-11-21T03:00:38.837Z,29.43
2018-11-21T03:03:08.444Z,29.90
2018-11-21T03:05:36.440Z,31.60
2018-11-21T03:08:04.683Z,30.37
2018-11-21T03:10:32.775Z,30.57
2018-11-21T03:13:00.849Z,30.50
2018-11-21T03:15:28.899Z,28.60
2018-11-21T03:17:56.940Z,31.53
2018-11-21T03:20:25.010Z,30.43
2018-11-21T03:22:53.080Z,28.57
2018-11-21T03:25:21.137Z,28.43
2018-11-21T03:27:49.170Z,30.57
2018-11-21T03:30:17.352Z,31.57
2018-11-21T03:32:45.387Z,29.93
2018-11-21T03:35:13.460Z,29.57
2018-11-21T03:37:41.526Z,27.77
2018-11-21T03:40:11.224Z,28.90
2018-11-21T03:42:39.618Z,29.93
2018-11-21T03:45:09.435Z,28.47
2018-11-21T03:47:37.512Z,29.93
2018-11-21T03:50:07.472Z,29.07
2018-11-21T03:52:35.548Z,32.40
2018-11-21T03:55:03.613Z,31.70
2018-11-21T03:57:31.710Z,32.30
2018-11-21T03:59:59.746Z,31.77
2018-11-21T04:02:27.853Z,29.80
2018-11-21T04:04:55.901Z,33.83
2018-11-21T04:07:23.995Z,30.10
2018-11-21T04:09:52.068Z,31.23
2018-11-21T04:12:20.143Z,29.87
2018-11-21T04:14:48.185Z,30.40
2018-11-21T04:17:16.189Z,30.47
2018-11-21T04:19:44.304Z,33.20
2018-11-21T04:22:12.361Z,30.60
2018-11-21T04:24:40.445Z,32.07
2018-11-21T04:27:08.484Z,34.50
2018-11-21T04:29:36.566Z,34.20
2018-11-21T04:32:04.611Z,32.60
2018-11-21T04:34:32.675Z,33.13
2018-11-21T04:37:00.744Z,31.73
2018-11-21T04:39:28.812Z,35.93
2018-11-21T04:41:56.842Z,35.60
2018-11-21T04:44:24.960Z,34.37
2018-11-21T04:46:52.963Z,32.53
2018-11-21T04:49:21.026Z,31.67
2018-11-21T04:51:49.099Z,33.13
2018-11-21T04:54:17.298Z,28.67
2018-11-21T04:56:45.359Z,31.87
2018-11-21T04:59:13.399Z,30.57
2018-11-21T05:01:41.523Z,31.07
2018-11-21T05:04:09.597Z,33.20
2018-11-21T05:06:37.853Z,36.17
2018-11-21T05:09:09.116Z,35.17
2018-11-21T05:11:37.226Z,31.77
2018-11-21T05:14:05.499Z,31.37
2018-11-21T05:16:33.871Z,32.20
2018-11-21T05:19:01.900Z,32.80
2018-11-21T05:21:29.943Z,30.90
2018-11-21T05:23:58.001Z,34.77
2018-11-21T05:26:26.060Z,35.10
2018-11-21T05:28:54.100Z,34.43
2018-11-21T05:31:22.188Z,32.07
2018-11-21T05:33:50.261Z,32.50
2018-11-21T05:36:18.318Z,38.93
2018-11-21T05:38:46.416Z,32.73
2018-11-21T05:41:14.493Z,36.63
2018-11-21T05:43:42.631Z,30.60
2018-11-21T05:46:10.706Z,34.23
2018-11-21T05:48:38.841Z,36.17
2018-11-21T05:51:06.874Z,39.30
2018-11-21T05:53:34.895Z,34.77
2018-11-21T05:56:02.973Z,36.23
2018-11-21T05:58:31.079Z,35.87
2018-11-21T06:00:59.125Z,36.30
2018-11-21T06:03:27.210Z,35.50
2018-11-21T06:05:55.295Z,35.07
2018-11-21T06:08:23.347Z,36.43
2018-11-21T06:10:51.554Z,35.07
2018-11-21T06:13:19.716Z,36.50
2018-11-21T06:15:47.701Z,34.53
2018-11-21T06:18:15.731Z,33.70
2018-11-21T06:20:43.793Z,36.47
2018-11-21T06:23:11.996Z,38.83
2018-11-21T06:25:40.080Z,36.40
2018-11-21T06:28:08.141Z,34.60
2018-11-21T06:30:36.227Z,36.50
2018-11-21T06:33:04.858Z,36.50
2018-11-21T06:35:32.925Z,37.60
2018-11-21T06:38:01.000Z,37.47
2018-11-21T06:40:29.098Z,34.90
2018-11-21T06:42:58.373Z,36.30
2018-11-21T06:45:27.591Z,37.33
2018-11-21T06:47:55.653Z,36.77
2018-11-21T06:50:23.695Z,35.73
2018-11-21T06:52:52.167Z,40.30
2018-11-21T06:55:20.220Z,37.50
2018-11-21T06:57:48.404Z,38.00
2018-11-21T07:00:16.436Z,38.73
2018-11-21T07:02:44.471Z,37.80
2018-11-21T07:05:12.594Z,39.23
2018-11-21T07:07:40.634Z,39.50
2018-11-21T07:10:11.532Z,38.43
2018-11-21T07:12:39.606Z,36.40
2018-11-21T07:15:08.071Z,41.37
2018-11-21T07:17:36.125Z,43.37
2018-11-21T07:20:24.037Z,40.07
2018-11-21T07:22:52.095Z,41.10
2018-11-21T07:25:21.621Z,37.90
2018-11-21T07:27:49.648Z,43.70
2018-11-21T07:30:18.180Z,40.17
2018-11-21T07:32:46.185Z,37.43
2018-11-21T07:35:18.150Z,41.57
2018-11-21T07:37:43.059Z,38.03
2018-11-21T07:40:12.696Z,39.00
2018-11-21T07:42:40.944Z,40.40
2018-11-21T07:45:10.808Z,39.17
2018-11-21T07:47:39.487Z,41.13
2018-11-21T07:50:26.703Z,37.90
2018-11-21T07:52:54.782Z,44.27
2018-11-21T07:55:22.928Z,40.80
2018-11-21T07:57:52.616Z,41.40
2018-11-21T08:01:09.664Z,41.13
2018-11-21T08:03:57.012Z,42.17
2018-11-21T08:06:31.574Z,39.90
2018-11-21T08:09:18.816Z,40.63
2018-11-21T08:12:06.011Z,40.33
2018-11-21T08:14:53.276Z,40.40
2018-11-21T08:17:40.481Z,43.37
2018-11-21T08:20:28.909Z,38.13
2018-11-21T08:23:16.175Z,39.57
2018-11-21T08:26:03.440Z,36.83
2018-11-21T08:28:31.698Z,40.83
2018-11-21T08:30:59.823Z,37.53
2018-11-21T08:33:33.911Z,42.17
2018-11-21T08:35:56.825Z,40.90
2018-11-21T08:38:24.946Z,43.57
2018-11-21T08:40:52.971Z,41.20
2018-11-21T08:43:21.020Z,43.37
2018-11-21T08:45:49.131Z,37.83
2018-11-21T08:48:18.057Z,41.20
2018-11-21T08:50:46.119Z,38.80
2018-11-21T08:53:14.195Z,40.07
2018-11-21T08:55:42.401Z,39.33
2018-11-21T08:58:10.527Z,38.43
2018-11-21T09:00:38.600Z,39.30
2018-11-21T09:03:07.129Z,41.33
2018-11-21T09:05:35.155Z,34.77
2018-11-21T09:08:03.538Z,41.87
2018-11-21T09:12:59.283Z,39.47
2018-11-21T09:15:27.365Z,42.83
2018-11-21T09:17:55.404Z,39.70
2018-11-21T09:20:23.478Z,40.17
2018-11-21T09:22:51.525Z,46.37
2018-11-21T09:25:19.606Z,39.90
2018-11-21T09:27:47.749Z,43.30
2018-11-21T09:30:19.773Z,40.03
2018-11-21T09:32:49.386Z,36.70
2018-11-21T09:35:18.173Z,40.70
2018-11-21T09:37:46.252Z,40.37
2018-11-21T09:40:34.232Z,36.20
2018-11-21T09:43:02.311Z,36.20
2018-11-21T09:45:30.389Z,36.77
2018-11-21T09:47:58.496Z,34.50
2018-11-21T09:50:28.068Z,41.73
2018-11-21T09:52:56.160Z,36.47
2018-11-21T09:55:24.265Z,34.97
2018-11-21T09:57:52.340Z,38.60
2018-11-21T10:00:58.710Z,38.50
2018-11-21T10:03:28.730Z,37.87
2018-11-21T10:06:35.138Z,36.27
2018-11-21T10:09:22.371Z,36.23
2018-11-21T10:11:50.476Z,39.30
2018-11-21T10:14:18.627Z,36.43
2018-11-21T10:16:46.766Z,35.37
2018-11-21T10:21:49.700Z,37.90
2018-11-21T10:24:17.884Z,34.57
2018-11-21T10:26:45.923Z,35.80
2018-11-21T10:29:14.062Z,37.87
2018-11-21T10:31:42.165Z,36.30
2018-11-21T10:34:10.239Z,34.37
2018-11-21T10:36:38.415Z,33.47
2018-11-21T10:39:08.724Z,37.07
2018-11-21T10:41:36.914Z,38.47
2018-11-21T10:44:05.170Z,37.67
2018-11-21T10:46:33.213Z,37.13
2018-11-21T10:49:01.354Z,40.70
2018-11-21T10:51:29.416Z,37.40
2018-11-21T10:53:57.505Z,39.17
2018-11-21T10:56:25.580Z,37.23
2018-11-21T10:58:53.713Z,35.33
2018-11-21T11:01:40.931Z,35.13
2018-11-21T11:04:28.298Z,39.53
2018-11-21T11:07:15.463Z,41.50
2018-11-21T11:10:02.815Z,38.40
2018-11-21T11:12:50.044Z,41.23
2018-11-21T11:15:37.280Z,37.37
2018-11-21T11:18:24.696Z,38.50
2018-11-21T11:21:11.983Z,37.70
2018-11-21T11:23:59.223Z,36.37
2018-11-21T11:26:38.115Z,42.63
2018-11-21T11:29:20.171Z,37.57
2018-11-21T11:32:07.406Z,43.73
2018-11-21T11:34:54.644Z,42.33
2018-11-21T11:37:44.351Z,42.13
2018-11-21T11:40:31.546Z,41.80
2018-11-21T11:43:18.807Z,42.83
2018-11-21T11:46:06.169Z,41.30
2018-11-21T11:48:53.535Z,40.93
2018-11-21T11:51:40.757Z,38.83
2018-11-21T11:54:28.080Z,37.70
2018-11-21T11:57:15.363Z,37.90
2018-11-21T12:00:02.985Z,39.90
2018-11-21T12:02:50.240Z,37.33
2018-11-21T12:05:37.497Z,36.97
2018-11-21T12:08:16.576Z,39.30
2018-11-21T12:11:03.794Z,41.83
2018-11-21T12:13:51.071Z,39.97
2018-11-21T12:16:38.337Z,39.73
2018-11-21T12:19:25.594Z,37.40
2018-11-21T12:22:16.640Z,38.00
2018-11-21T12:25:03.865Z,42.50
2018-11-21T12:27:51.135Z,39.70
2018-11-21T12:30:38.353Z,38.20
2018-11-21T12:33:25.636Z,38.40
2018-11-21T12:36:12.873Z,39.37
2018-11-21T12:39:00.197Z,36.97
2018-11-21T12:41:47.398Z,37.10
2018-11-21T12:44:46.940Z,38.73
2018-11-21T12:47:34.191Z,38.67
2018-11-21T12:50:21.452Z,40.20
2018-11-21T12:53:08.688Z,39.70
2018-11-21T12:55:55.937Z,37.27
2018-11-21T12:58:43.151Z,39.43
2018-11-21T13:01:30.425Z,36.73
2018-11-21T13:04:17.804Z,37.77
2018-11-21T13:07:05.087Z,39.13
2018-11-21T13:09:56.643Z,39.53
2018-11-21T13:12:39.558Z,40.97
2018-11-21T13:15:27.617Z,36.37
2018-11-21T13:18:14.898Z,40.07
2018-11-21T13:21:02.206Z,42.27
2018-11-21T13:23:49.491Z,37.70
2018-11-21T13:26:36.762Z,36.03
2018-11-21T13:29:24.025Z,40.77
2018-11-21T13:32:11.260Z,41.70
2018-11-21T13:34:58.526Z,34.37
2018-11-21T13:37:45.796Z,36.00
2018-11-21T13:40:33.082Z,38.27
2018-11-21T13:43:20.395Z,38.27
2018-11-21T13:46:07.637Z,42.20
2018-11-21T13:48:55.623Z,49.67
2018-11-21T13:51:42.974Z,48.67
2018-11-21T13:54:29.521Z,42.37
2018-11-21T13:56:57.656Z,41.77
2018-11-21T13:59:25.752Z,37.17
2018-11-21T14:01:53.879Z,37.77
2018-11-21T14:04:21.961Z,38.97
2018-11-21T14:06:50.047Z,40.10
2018-11-21T14:09:25.279Z,39.97
2018-11-21T14:11:53.433Z,38.63
2018-11-21T14:14:21.549Z,39.07
2018-11-21T14:16:49.617Z,38.37
2018-11-21T14:19:17.769Z,34.27
2018-11-21T14:21:45.812Z,38.70
2018-11-21T14:24:13.937Z,33.10
2018-11-21T14:26:42.057Z,41.77
2018-11-21T14:29:10.184Z,38.73
2018-11-21T14:31:38.240Z,37.20
2018-11-21T14:34:06.384Z,35.63
2018-11-21T14:36:34.447Z,37.27
2018-11-21T14:39:02.534Z,36.70
2018-11-21T14:41:30.597Z,40.57
2018-11-21T14:44:17.840Z,36.63
2018-11-21T14:46:48.040Z,35.03
2018-11-21T14:49:16.091Z,36.07
2018-11-21T14:51:44.194Z,40.33
2018-11-21T14:54:12.271Z,39.97
2018-11-21T14:56:40.408Z,41.33
2018-11-21T14:59:08.532Z,38.63
2018-11-21T15:01:36.619Z,34.07
2018-11-21T15:04:05.001Z,36.63
2018-11-21T15:06:33.081Z,32.27
2018-11-21T15:09:01.491Z,38.70
2018-11-21T15:11:29.559Z,33.70
2018-11-21T15:13:57.614Z,34.10
2018-11-21T15:16:44.848Z,43.23
2018-11-21T15:19:12.919Z,37.37
2018-11-21T15:22:00.189Z,33.87
2018-11-21T15:24:28.311Z,39.43
2018-11-21T15:26:56.357Z,39.93
2018-11-21T15:29:24.600Z,37.10
2018-11-21T15:31:52.660Z,36.83
2018-11-21T15:34:20.800Z,37.23
2018-11-21T15:36:48.819Z,37.80
2018-11-21T15:39:16.910Z,41.80
2018-11-21T15:41:45.094Z,39.13
2018-11-21T15:44:13.204Z,39.40
2018-11-21T15:46:45.643Z,35.90
2018-11-21T15:49:09.346Z,37.70
2018-11-21T15:51:38.065Z,38.97
2018-11-21T15:54:06.160Z,42.67
2018-11-21T15:56:34.224Z,43.60
2018-11-21T15:59:02.287Z,45.27
2018-11-21T16:01:49.556Z,37.33
2018-11-21T16:04:17.831Z,39.63
2018-11-21T16:06:45.887Z,37.97
2018-11-21T16:09:13.980Z,38.63
2018-11-21T16:11:42.040Z,36.53
2018-11-21T16:14:10.115Z,37.47
2018-11-21T16:16:38.166Z,35.00
2018-11-21T16:19:06.274Z,34.80
2018-11-21T16:21:34.338Z,39.40
2018-11-21T16:24:02.398Z,37.90
2018-11-21T16:26:30.484Z,38.13
2018-11-21T16:28:58.562Z,39.00
2018-11-21T16:31:26.696Z,38.97
2018-11-21T16:33:54.818Z,35.27
2018-11-21T16:36:27.273Z,37.50
2018-11-21T16:38:50.958Z,35.47
2018-11-21T16:41:19.056Z,39.23
2018-11-21T16:43:47.102Z,36.37
2018-11-21T16:46:15.173Z,37.00
2018-11-21T16:48:43.254Z,40.60
2018-11-21T16:51:11.298Z,41.13
2018-11-21T16:53:39.383Z,38.07
2018-11-21T16:56:07.553Z,41.17
2018-11-21T16:58:35.661Z,42.57
2018-11-21T17:01:03.997Z,37.77
2018-11-21T17:03:32.078Z,40.03
2018-11-21T17:06:00.209Z,39.50
2018-11-21T17:08:28.376Z,43.33
2018-11-21T17:10:56.501Z,42.57
2018-11-21T17:13:24.588Z,42.60
2018-11-21T17:15:52.694Z,42.97
2018-11-21T17:18:20.731Z,48.83
2018-11-21T17:20:48.846Z,40.73
2018-11-21T17:23:16.961Z,45.27
2018-11-21T17:25:45.052Z,42.57
2018-11-21T17:28:13.190Z,40.43
2018-11-21T17:30:41.287Z,39.57
2018-11-21T17:33:09.440Z,40.00
2018-11-21T17:35:37.491Z,40.83
2018-11-21T17:38:05.595Z,43.33
2018-11-21T17:40:38.082Z,42.87
2018-11-21T17:43:06.326Z,45.77
2018-11-21T17:45:34.385Z,40.93
2018-11-21T17:48:02.681Z,40.23
2018-11-21T17:50:30.760Z,43.67
2018-11-21T17:53:00.361Z,42.07
2018-11-21T17:55:29.526Z,47.33
2018-11-21T17:57:57.699Z,38.23
2018-11-21T18:00:27.206Z,41.13
2018-11-21T18:02:55.317Z,40.60
2018-11-21T18:05:25.209Z,43.33
2018-11-21T18:07:53.292Z,42.90
2018-11-21T18:10:23.031Z,43.97
2018-11-21T18:12:51.097Z,41.73
2018-11-21T18:15:19.698Z,39.03
2018-11-21T18:17:48.457Z,41.70
2018-11-21T18:20:17.225Z,42.30
2018-11-21T18:22:46.080Z,42.23
2018-11-21T18:25:19.387Z,46.87
2018-11-21T18:27:47.426Z,57.20
2018-11-21T18:30:17.235Z,46.27
2018-11-21T18:32:45.811Z,44.13
2018-11-21T18:35:18.087Z,49.23
2018-11-21T18:37:46.730Z,48.27
2018-11-21T18:40:16.289Z,53.07
2018-11-21T18:42:44.552Z,48.50
2018-11-21T18:45:51.940Z,51.37
2018-11-21T18:48:20.061Z,46.87
2018-11-21T18:50:48.103Z,48.43
2018-11-21T18:53:16.211Z,50.63
2018-11-21T18:55:50.348Z,48.30
2018-11-21T18:58:39.958Z,46.80
2018-11-21T19:01:08.061Z,45.70
2018-11-21T19:03:36.160Z,46.93
2018-11-21T19:06:04.298Z,49.70
2018-11-21T19:08:32.421Z,51.17
2018-11-21T19:11:00.496Z,49.13
2018-11-21T19:13:29.172Z,48.80
2018-11-21T19:15:57.271Z,50.87
2018-11-21T19:18:25.312Z,49.23
2018-11-21T19:20:53.389Z,45.27
2018-11-21T19:23:21.433Z,51.63
2018-11-21T19:25:49.532Z,51.63
2018-11-21T19:28:17.573Z,51.27
2018-11-21T19:30:45.808Z,54.77
2018-11-21T19:33:13.866Z,69.17
2018-11-21T19:35:41.964Z,52.87
2018-11-21T19:38:10.028Z,53.57
2018-11-21T19:40:38.131Z,52.17
2018-11-21T19:43:06.219Z,51.47
2018-11-21T19:45:34.454Z,48.77
2018-11-21T19:48:02.611Z,52.00
2018-11-21T19:50:30.675Z,51.47
2018-11-21T19:53:18.040Z,49.23
2018-11-21T19:55:46.135Z,52.57
2018-11-21T19:58:14.214Z,49.90
2018-11-21T20:00:42.294Z,45.80
2018-11-21T20:03:10.341Z,54.50
2018-11-21T20:05:38.726Z,45.67
2018-11-21T20:08:07.009Z,49.77
2018-11-21T20:10:35.214Z,52.50
2018-11-21T20:13:03.666Z,46.90
2018-11-21T20:15:31.895Z,46.83
2018-11-21T20:18:01.290Z,47.97
2018-11-21T20:20:29.413Z,50.30
2018-11-21T20:22:57.517Z,47.30
2018-11-21T20:25:26.137Z,50.27
2018-11-21T20:27:54.205Z,49.57
2018-11-21T20:30:23.861Z,46.90
2018-11-21T20:32:51.974Z,45.07
2018-11-21T20:35:20.022Z,48.80
2018-11-21T20:37:48.118Z,48.20
2018-11-21T20:40:35.559Z,47.87
2018-11-21T20:43:03.706Z,49.17
2018-11-21T20:45:31.755Z,47.93
2018-11-21T20:48:00.793Z,42.57
2018-11-21T20:50:28.928Z,45.57
2018-11-21T20:52:57.019Z,46.73
2018-11-21T20:55:26.798Z,48.53
2018-11-21T20:57:54.907Z,46.67
2018-11-21T21:00:24.713Z,46.90
2018-11-21T21:02:52.811Z,48.33
2018-11-21T21:05:22.476Z,52.30
2018-11-21T21:07:50.560Z,48.07
2018-11-21T21:10:23.207Z,46.63
2018-11-21T21:12:51.272Z,46.33
2018-11-21T21:15:19.407Z,53.73
2018-11-21T21:17:48.289Z,49.67
2018-11-21T21:20:17.859Z,44.40
2018-11-21T21:22:46.933Z,49.00
2018-11-21T21:25:16.659Z,47.07
2018-11-21T21:27:44.763Z,47.60
2018-11-21T21:30:18.150Z,47.13
2018-11-21T21:32:46.939Z,48.40
2018-11-21T21:35:16.067Z,44.47
2018-11-21T21:37:44.317Z,43.67
2018-11-21T21:40:32.231Z,48.80
2018-11-21T21:43:00.412Z,48.17
2018-11-21T21:45:29.650Z,47.63
2018-11-21T21:47:57.918Z,48.37
2018-11-21T21:50:27.739Z,46.50
2018-11-21T21:53:15.251Z,50.67
2018-11-21T21:55:43.320Z,46.57
2018-11-21T21:58:11.513Z,45.40
2018-11-21T22:00:39.710Z,48.47
2018-11-21T22:03:07.854Z,46.73
2018-11-21T22:05:35.892Z,44.37
2018-11-21T22:08:03.954Z,42.63
2018-11-21T22:10:32.013Z,42.67
2018-11-21T22:13:00.105Z,44.23
2018-11-21T22:15:29.519Z,43.63
2018-11-21T22:17:59.215Z,41.27
2018-11-21T22:20:27.306Z,42.43
2018-11-21T22:22:55.598Z,40.10
2018-11-21T22:25:24.375Z,41.37
2018-11-21T22:27:52.429Z,40.10
2018-11-21T22:30:21.178Z,46.70
2018-11-21T22:32:50.004Z,50.60
2018-11-21T22:35:24.914Z,44.03
2018-11-21T22:37:51.389Z,39.07
2018-11-21T22:40:16.370Z,41.57
2018-11-21T22:42:45.146Z,43.13
2018-11-21T22:45:14.605Z,39.80
2018-11-21T22:47:42.999Z,43.40
2018-11-21T22:50:13.311Z,41.70
2018-11-21T22:52:41.409Z,42.77
2018-11-21T22:55:10.328Z,42.30
2018-11-21T22:57:38.344Z,42.73
2018-11-21T23:00:10.505Z,38.77
2018-11-21T23:02:38.571Z,44.13
2018-11-21T23:05:08.181Z,41.30
2018-11-21T23:07:36.625Z,41.30
2018-11-21T23:10:05.564Z,44.47
2018-11-21T23:12:33.603Z,43.07
2018-11-21T23:15:01.708Z,45.07
2018-11-21T23:17:29.817Z,43.80
2018-11-21T23:19:57.898Z,44.23
2018-11-21T23:22:26.657Z,45.50
2018-11-21T23:24:53.988Z,43.87
2018-11-21T23:27:22.096Z,45.73
2018-11-21T23:29:50.122Z,43.33
2018-11-21T23:32:18.217Z,44.20
2018-11-21T23:34:46.259Z,41.80
2018-11-21T23:37:14.280Z,46.47
2018-11-21T23:39:42.346Z,45.27
2018-11-21T23:42:10.386Z,43.40
2018-11-21T23:44:38.551Z,44.07
2018-11-21T23:47:06.636Z,42.50
2018-11-21T23:49:34.738Z,43.63
2018-11-21T23:52:02.799Z,43.87
2018-11-21T23:54:30.876Z,43.90
2018-11-21T23:57:15.867Z,41.90
2018-11-21T23:59:27.039Z,47.83
